Portoroz, Slovenia

5:49 AM CEST on July 26, 2016 (GMT +0200)
IIZOLAMA2 | | Change Station

Elev 351 ft 45.51 °N, 13.63 °E | Updated 7 seconds ago

Clear
Clear
73.4 °F
Feels Like 75 °F
N
4.0
Wind Variable Wind from NNE
Gusts 10.0 mph

Today
High -- | Low -- °F
--% Chance of Precip.
Yesterday
High -- | Low -- °F
Precip. -- in
Pressure 29.95 in
Visibility 6.2 miles
Clouds
Heat Index 75 °F
Dew Point 65 °F
Humidity 75%
Rainfall 0.00 in
Snow Depth Not available.
5:43 AM 8:40 PM
Waning Gibbous, 59% visible
METAR LJPZ 260330Z AUTO 12004KT 090V170 9999 NSC 19/17 Q1014
Pressure 29.95 in
Visibility 6.2 miles
Clouds
Heat Index 75 °F
Dew Point 65 °F
Humidity 75%
Rainfall 0.00 in
Snow Depth Not available.
5:43 AM 8:40 PM
Waning Gibbous, 59% visible
METAR LJPZ 260330Z AUTO 12004KT 090V170 9999 NSC 19/17 Q1014

10-Day Weather Forecast

×

Almanac

Astronomy

Jul. 26, 2016 Rise Set
Actual Time
Civil Twilight
Nautical Twilight
Astronomical Twilight
Moon
Length of Visible Light
Length of Day
Tomorrow will be .
, % of the Moon is Illuminated

Today's Extremes

Country Highs Country Lows

Community

WunderPhotos

Upload Photos

1,927,523 photos uploaded!

WunderBlog® & News

Nearby

Air Quality

  Air Quality AQ Index Pollutant
Not available.

Snow Depth

Station Depth Elevation

Earthquake Activity

City Distance Mag. Time & Date
Minimum magnitude displayed is 2.5.

Coastal Water Temperatures

Place Temperature

Stations

Nearby Weather Stations

Station Location Temp. Windchill Dew Point Humidity Wind Precip. Elev Updated Type